Time;durP1;ratioP1;P1;durP2;ratioP2;P2;SDS_P1;SDS_P2;PMS_P1;PMS_P2;Temp;Humidity;BMP_temperature;BMP_pressure;BME280_temperature;BME280_humidity;BME280_pressure;Samples;Min_cycle;Max_cycle;Signal;HPM_P1;HPM_P2
2022/12/03 00:01:55;;;;;;;29.35;15.35;;;4.30;87.70;;;;;;4995195;28;20041;-62
2022/12/03 00:04:20;;;;;;;27.63;14.68;;;4.30;87.70;;;;;;5011405;28;20030;-62
2022/12/03 00:06:46;;;;;;;29.05;14.90;;;4.20;87.60;;;;;;5013791;28;20406;-60
2022/12/03 00:09:11;;;;;;;28.17;14.82;;;4.20;88.50;;;;;;5014616;28;20123;-59
2022/12/03 00:11:37;;;;;;;26.60;14.70;;;4.30;87.70;;;;;;5009908;28;20042;-60
2022/12/03 00:14:03;;;;;;;29.73;14.20;;;4.20;87.70;;;;;;5006996;28;20204;-60
2022/12/03 00:16:28;;;;;;;26.73;13.63;;;4.20;87.60;;;;;;5003149;28;20515;-62
2022/12/03 00:18:54;;;;;;;27.08;14.70;;;4.20;87.50;;;;;;5009173;28;20046;-61
2022/12/03 00:21:19;;;;;;;26.45;13.57;;;4.20;87.30;;;;;;5008318;28;20754;-61
2022/12/03 00:23:45;;;;;;;23.95;12.55;;;4.20;87.30;;;;;;5005547;28;20049;-61
2022/12/03 00:26:10;;;;;;;23.90;12.98;;;4.20;86.70;;;;;;5008587;28;20030;-62
2022/12/03 00:28:36;;;;;;;24.73;13.93;;;4.20;87.50;;;;;;5008080;28;20077;-61
2022/12/03 00:31:02;;;;;;;42.55;15.80;;;4.10;87.50;;;;;;5010072;28;20524;-61
2022/12/03 00:33:27;;;;;;;26.40;13.77;;;4.10;87.50;;;;;;5009891;28;20079;-62
2022/12/03 00:35:53;;;;;;;25.88;12.95;;;4.20;87.50;;;;;;5014672;28;20037;-61
2022/12/03 00:38:18;;;;;;;23.75;12.55;;;4.10;87.50;;;;;;4998165;28;20068;-59
2022/12/03 00:40:44;;;;;;;25.98;12.57;;;4.10;87.50;;;;;;5012981;28;20041;-62
2022/12/03 00:43:09;;;;;;;26.27;13.43;;;4.10;87.40;;;;;;5015379;28;20034;-62
2022/12/03 00:45:35;;;;;;;25.77;12.80;;;4.10;87.50;;;;;;5013088;28;20037;-62
2022/12/03 00:48:01;;;;;;;27.17;13.43;;;4.10;87.50;;;;;;5012473;28;20080;-60
2022/12/03 00:50:27;;;;;;;22.27;12.02;;;4.10;87.60;;;;;;5008872;28;20409;-61
2022/12/03 00:52:52;;;;;;;25.70;12.98;;;4.00;87.50;;;;;;4990589;28;20516;-60
2022/12/03 00:55:18;;;;;;;25.48;12.98;;;4.10;87.70;;;;;;5006459;28;20040;-62
2022/12/03 00:57:43;;;;;;;31.27;14.02;;;4.00;87.60;;;;;;5010188;28;20059;-61
2022/12/03 01:00:10;;;;;;;25.35;12.57;;;4.00;87.70;;;;;;5006543;28;20116;-61
2022/12/03 01:02:36;;;;;;;24.45;12.55;;;4.10;87.70;;;;;;5006443;28;20034;-61
2022/12/03 01:05:01;;;;;;;25.08;12.68;;;4.10;87.70;;;;;;5007314;28;20034;-61
2022/12/03 01:07:27;;;;;;;27.98;13.82;;;4.00;87.50;;;;;;5011361;28;20048;-61
2022/12/03 01:09:53;;;;;;;26.55;13.65;;;4.10;87.60;;;;;;5009025;28;20031;-62
2022/12/03 01:12:18;;;;;;;26.70;13.35;;;4.00;87.70;;;;;;5010872;28;20702;-60
2022/12/03 01:14:44;;;;;;;28.33;14.88;;;4.00;87.60;;;;;;5007417;28;20042;-61
2022/12/03 01:17:11;;;;;;;27.65;13.85;;;4.00;87.70;;;;;;4993125;28;20041;-62
2022/12/03 01:19:36;;;;;;;25.70;13.40;;;4.10;87.70;;;;;;5009715;28;20579;-62
2022/12/03 01:22:02;;;;;;;28.00;14.13;;;4.10;87.90;;;;;;5008587;28;20038;-60
2022/12/03 01:24:28;;;;;;;27.83;14.43;;;4.10;88.00;;;;;;5007142;28;20049;-62
2022/12/03 01:26:55;;;;;;;28.80;14.65;;;4.10;87.90;;;;;;5012607;28;20045;-60
2022/12/03 01:29:20;;;;;;;28.58;14.35;;;4.10;87.90;;;;;;5011854;28;20040;-61
2022/12/03 01:34:30;;;;;;;29.00;14.45;;;4.10;87.90;;;;;;5010755;28;20041;-60
2022/12/03 01:36:56;;;;;;;30.42;15.40;;;4.10;87.90;;;;;;5011987;28;20034;-61
2022/12/03 01:39:22;;;;;;;31.75;15.13;;;4.10;87.90;;;;;;5014738;28;20501;-59
2022/12/03 01:41:50;;;;;;;29.13;14.57;;;4.10;87.90;;;;;;5010245;28;20882;-61
2022/12/03 01:44:22;;;;;;;27.63;14.70;;;4.20;88.00;;;;;;5015315;28;20046;-60
2022/12/03 01:46:49;;;;;;;29.38;14.80;;;4.20;87.90;;;;;;5011570;28;20477;-61
2022/12/03 01:49:20;;;;;;;25.23;13.40;;;4.20;87.70;;;;;;5012795;28;20174;-59
2022/12/03 01:51:48;;;;;;;27.75;14.30;;;4.10;87.50;;;;;;5012518;28;20056;-60
2022/12/03 01:54:18;;;;;;;24.42;12.70;;;4.10;87.50;;;;;;5012985;28;20069;-61
2022/12/03 01:56:45;;;;;;;24.40;12.73;;;4.10;87.50;;;;;;5012109;28;20416;-62
2022/12/03 01:59:26;;;;;;;24.65;12.90;;;4.00;87.30;;;;;;5011245;28;20225;-60
2022/12/03 02:01:52;;;;;;;25.63;12.13;;;4.00;87.30;;;;;;5009721;28;20128;-61
2022/12/03 02:04:21;;;;;;;23.08;12.07;;;4.00;87.50;;;;;;5009854;28;20128;-61
2022/12/03 02:06:46;;;;;;;22.88;12.25;;;3.90;87.70;;;;;;5013523;28;20034;-59
2022/12/03 02:09:12;;;;;;;26.17;12.82;;;3.90;87.70;;;;;;5013540;28;20040;-60
2022/12/03 02:11:45;;;;;;;27.63;13.00;;;3.90;87.90;;;;;;5005740;28;20052;-61
2022/12/03 02:14:15;;;;;;;24.15;12.57;;;3.90;88.10;;;;;;5015251;28;20129;-57
2022/12/03 02:16:41;;;;;;;24.88;12.45;;;3.90;88.20;;;;;;5008654;28;20048;-61
2022/12/03 02:19:30;;;;;;;23.80;12.15;;;3.90;88.10;;;;;;5012567;28;20096;-60
2022/12/03 02:22:00;;;;;;;24.05;12.90;;;4.00;88.20;;;;;;5013493;28;20494;-59
2022/12/03 02:24:28;;;;;;;24.25;13.18;;;4.00;88.10;;;;;;5010248;28;20484;-60
2022/12/03 02:26:54;;;;;;;25.80;13.40;;;4.00;88.10;;;;;;5008010;28;20041;-61
2022/12/03 02:29:20;;;;;;;26.20;12.98;;;4.00;88.10;;;;;;5010939;28;20559;-60
2022/12/03 02:31:46;;;;;;;25.75;13.27;;;4.10;88.10;;;;;;5006058;28;20490;-60
2022/12/03 02:34:32;;;;;;;25.98;13.35;;;4.10;88.10;;;;;;5010341;28;20367;-61
2022/12/03 02:36:58;;;;;;;28.85;13.45;;;4.10;88.20;;;;;;5015063;28;20442;-61
2022/12/03 02:39:24;;;;;;;25.10;13.63;;;4.10;88.00;;;;;;5015367;28;20069;-61
2022/12/03 02:44:34;;;;;;;24.73;13.93;;;4.20;88.00;;;;;;5015951;28;20044;-61
2022/12/03 02:47:00;;;;;;;27.55;13.98;;;4.10;87.90;;;;;;5014855;28;20412;-60
2022/12/03 02:49:26;;;;;;;27.30;14.05;;;4.20;88.00;;;;;;5009448;28;20557;-61
2022/12/03 02:51:51;;;;;;;25.33;14.15;;;4.30;88.10;;;;;;5010264;28;20041;-61
2022/12/03 02:54:17;;;;;;;25.48;13.93;;;4.20;88.00;;;;;;5009243;28;20042;-60
2022/12/03 02:56:42;;;;;;;25.27;13.65;;;4.20;88.00;;;;;;5010961;28;20038;-60
2022/12/03 02:59:08;;;;;;;26.17;15.18;;;4.30;88.10;;;;;;5010947;28;20041;-60
2022/12/03 03:01:34;;;;;;;22.85;13.15;;;4.30;87.90;;;;;;5010762;28;20044;-61
2022/12/03 03:04:01;;;;;;;23.27;13.10;;;4.30;87.80;;;;;;5007313;28;20103;-62
2022/12/03 03:06:27;;;;;;;22.75;12.52;;;4.30;87.70;;;;;;5009651;28;20040;-60
2022/12/03 03:08:52;;;;;;;21.83;12.20;;;4.30;87.50;;;;;;5006859;28;20041;-59
2022/12/03 03:11:18;;;;;;;21.25;11.90;;;4.30;87.40;;;;;;5007894;28;20045;-61
2022/12/03 03:13:43;;;;;;;21.80;12.43;;;4.30;87.30;;;;;;5008695;28;20041;-61
2022/12/03 03:16:09;;;;;;;22.33;13.52;;;4.30;87.40;;;;;;5010886;28;20060;-61
2022/12/03 03:18:35;;;;;;;22.67;13.07;;;4.30;87.50;;;;;;5008179;28;20094;-61
2022/12/03 03:21:02;;;;;;;22.52;13.25;;;4.30;87.50;;;;;;5011514;28;20055;-60
2022/12/03 03:23:28;;;;;;;24.55;13.32;;;4.30;87.50;;;;;;5009195;28;20033;-60
2022/12/03 03:26:04;;;;;;;22.27;12.90;;;4.30;87.40;;;;;;5009745;28;20048;-61
2022/12/03 03:28:31;;;;;;;20.13;12.40;;;4.30;87.40;;;;;;5010536;28;20065;-60
2022/12/03 03:31:01;;;;;;;21.80;12.55;;;4.30;87.50;;;;;;5003098;28;20041;-61
2022/12/03 03:33:27;;;;;;;23.73;13.48;;;4.30;87.60;;;;;;5010376;28;20072;-60
2022/12/03 03:35:52;;;;;;;23.63;13.25;;;4.30;88.40;;;;;;5012368;28;20045;-60
2022/12/03 03:38:19;;;;;;;26.08;13.70;;;4.30;87.60;;;;;;5012300;28;20677;-61
2022/12/03 03:40:47;;;;;;;25.02;13.85;;;4.30;87.50;;;;;;5015248;28;20029;-60
2022/12/03 03:43:13;;;;;;;26.33;14.30;;;4.30;87.60;;;;;;5016912;28;20037;-58
2022/12/03 03:45:39;;;;;;;24.33;13.02;;;4.30;87.60;;;;;;5016762;28;20086;-59
2022/12/03 03:48:04;;;;;;;25.23;13.90;;;4.30;87.50;;;;;;5016885;28;20188;-58
2022/12/03 03:50:31;;;;;;;25.48;13.77;;;4.30;87.50;;;;;;5015576;28;20034;-60
2022/12/03 03:52:58;;;;;;;23.80;12.95;;;4.30;87.40;;;;;;5015420;28;20041;-61
2022/12/03 03:55:24;;;;;;;27.98;13.68;;;4.30;87.50;;;;;;5016974;28;20034;-58
2022/12/03 03:57:50;;;;;;;27.83;14.38;;;4.30;87.50;;;;;;5016738;28;20448;-59
2022/12/03 04:00:16;;;;;;;24.90;13.52;;;4.30;87.50;;;;;;5016859;28;20025;-60
2022/12/03 04:02:42;;;;;;;27.83;14.18;;;4.30;87.50;;;;;;5016427;28;20069;-60
2022/12/03 04:05:17;;;;;;;28.35;14.43;;;4.30;87.50;;;;;;5010465;28;20133;-59
2022/12/03 04:07:42;;;;;;;;;;;4.30;87.30;;;;;;5006813;28;20124;-59
2022/12/03 04:12:56;;;;;;;26.77;13.65;;;4.20;87.10;;;;;;5004533;28;20053;-59
2022/12/03 04:15:22;;;;;;;26.05;13.48;;;4.20;87.20;;;;;;5011167;28;20110;-60
2022/12/03 04:20:32;;;;;;;29.00;14.23;;;4.20;87.40;;;;;;5004871;28;20044;-61
2022/12/03 04:22:57;;;;;;;30.10;13.88;;;4.20;87.50;;;;;;5007306;28;20034;-59
2022/12/03 04:30:52;;;;;;;;;;;4.20;87.70;;;;;;5007472;28;20511;-60
2022/12/03 04:36:02;;;;;;;29.97;14.33;;;4.20;87.50;;;;;;5009760;28;20044;-60
2022/12/03 04:38:27;;;;;;;26.98;12.80;;;4.20;87.60;;;;;;5006280;28;20129;-59
2022/12/03 04:41:05;;;;;;;32.05;15.15;;;4.20;87.70;;;;;;5006723;28;22475;-59
2022/12/03 04:43:33;;;;;;;30.13;14.18;;;4.20;87.80;;;;;;5010337;28;20065;-61
2022/12/03 04:45:59;;;;;;;30.45;14.18;;;4.20;87.90;;;;;;5010455;28;20504;-59
2022/12/03 04:48:24;;;;;;;30.85;15.15;;;4.10;87.90;;;;;;5012438;28;20041;-59
2022/12/03 04:50:50;;;;;;;28.90;14.27;;;4.20;88.00;;;;;;5008648;28;20068;-59
2022/12/03 04:53:15;;;;;;;27.65;13.90;;;4.20;88.10;;;;;;5010442;28;20034;-61
2022/12/03 04:55:41;;;;;;;31.02;13.90;;;4.20;88.10;;;;;;5010823;28;20034;-60
2022/12/03 04:58:07;;;;;;;30.02;13.82;;;4.20;88.00;;;;;;5008716;28;20033;-60
2022/12/03 05:00:32;;;;;;;28.73;14.23;;;4.20;88.00;;;;;;5011483;28;20041;-59
2022/12/03 05:02:58;;;;;;;28.70;14.55;;;4.20;88.00;;;;;;5008869;28;20124;-60
2022/12/03 05:05:23;;;;;;;27.10;13.38;;;4.20;88.10;;;;;;5009936;28;20064;-60
2022/12/03 05:07:49;;;;;;;26.00;13.32;;;4.30;88.20;;;;;;5008647;28;20029;-59
2022/12/03 05:10:14;;;;;;;23.58;12.77;;;4.30;88.10;;;;;;5010374;28;20079;-60
2022/12/03 05:12:40;;;;;;;29.45;14.75;;;4.30;88.00;;;;;;5006161;28;20030;-60
2022/12/03 05:15:06;;;;;;;26.50;13.00;;;4.30;88.00;;;;;;5010915;28;20080;-61
2022/12/03 05:17:32;;;;;;;28.65;13.95;;;4.30;88.10;;;;;;5014430;28;20033;-59
2022/12/03 05:22:42;;;;;;;28.73;14.25;;;4.30;88.00;;;;;;5011397;28;20219;-59
2022/12/03 05:25:09;;;;;;;29.05;14.07;;;4.40;88.00;;;;;;5012162;28;20536;-60
2022/12/03 05:27:34;;;;;;;29.95;14.93;;;4.30;87.90;;;;;;5013280;28;20041;-59
2022/12/03 05:30:00;;;;;;;28.75;14.27;;;4.40;87.90;;;;;;5014120;28;20038;-61
2022/12/03 05:32:26;;;;;;;28.70;14.18;;;4.40;88.70;;;;;;5010379;28;20160;-60
2022/12/03 05:34:51;;;;;;;30.67;15.02;;;4.40;87.90;;;;;;5010929;28;20042;-59
2022/12/03 05:37:17;;;;;;;29.05;14.02;;;4.40;88.70;;;;;;5012052;28;20030;-59
2022/12/03 05:39:43;;;;;;;28.80;15.15;;;4.40;87.80;;;;;;5009216;28;20029;-60
2022/12/03 05:44:53;;;;;;;29.05;14.25;;;4.30;87.70;;;;;;5008269;28;20063;-61
2022/12/03 05:47:19;;;;;;;27.77;12.68;;;4.30;87.90;;;;;;5011937;28;20797;-59
2022/12/03 05:49:45;;;;;;;29.58;13.63;;;4.30;88.00;;;;;;5013224;28;20389;-59
2022/12/03 05:52:10;;;;;;;26.88;12.88;;;4.20;88.00;;;;;;5010611;28;20046;-60
2022/12/03 05:54:36;;;;;;;23.80;11.65;;;4.20;88.00;;;;;;5010951;28;20038;-59
2022/12/03 05:57:02;;;;;;;26.48;12.85;;;4.20;88.00;;;;;;5012001;28;20030;-60
2022/12/03 05:59:27;;;;;;;29.67;13.23;;;4.20;88.10;;;;;;5012275;28;20041;-61
2022/12/03 06:01:53;;;;;;;24.98;12.60;;;4.20;88.10;;;;;;5012886;28;20117;-60
2022/12/03 06:04:18;;;;;;;27.95;13.35;;;4.20;88.10;;;;;;5007340;28;20084;-61
2022/12/03 06:06:44;;;;;;;27.40;12.82;;;4.30;88.20;;;;;;5011624;28;20042;-59
2022/12/03 06:09:09;;;;;;;28.55;13.07;;;4.30;88.20;;;;;;5014647;28;20061;-59
2022/12/03 06:11:36;;;;;;;27.70;13.05;;;4.30;88.10;;;;;;5016046;28;20112;-60
2022/12/03 06:14:02;;;;;;;28.23;13.35;;;4.30;88.10;;;;;;5015365;28;20030;-59
2022/12/03 06:16:28;;;;;;;28.58;13.35;;;4.30;88.10;;;;;;5014240;28;20034;-60
2022/12/03 06:18:54;;;;;;;30.50;13.63;;;4.30;88.10;;;;;;5016128;28;20409;-60
2022/12/03 06:21:19;;;;;;;31.52;14.00;;;4.30;88.20;;;;;;5016274;28;20034;-61
2022/12/03 06:23:45;;;;;;;30.65;13.88;;;4.30;88.10;;;;;;5009523;28;20029;-61
2022/12/03 06:26:11;;;;;;;31.55;14.27;;;4.40;88.20;;;;;;5004767;28;20424;-61
2022/12/03 06:28:37;;;;;;;32.20;14.77;;;4.40;88.20;;;;;;5012464;28;20713;-61
2022/12/03 06:31:03;;;;;;;32.47;15.65;;;4.40;88.10;;;;;;5009789;28;20042;-61
2022/12/03 06:33:29;;;;;;;34.35;15.15;;;4.40;88.20;;;;;;5008540;28;20049;-60
2022/12/03 06:35:54;;;;;;;31.80;14.43;;;4.40;88.20;;;;;;5011730;28;20649;-61
2022/12/03 06:38:21;;;;;;;31.98;14.63;;;4.40;88.20;;;;;;5012334;28;20516;-60
2022/12/03 06:40:46;;;;;;;33.63;14.98;;;4.40;88.20;;;;;;5014538;28;20044;-60
2022/12/03 06:43:12;;;;;;;34.13;15.27;;;4.50;88.40;;;;;;5018728;28;20120;-60
2022/12/03 06:45:37;;;;;;;32.58;14.98;;;4.50;88.20;;;;;;5014745;28;20038;-60
2022/12/03 06:48:03;;;;;;;36.20;15.20;;;4.50;88.20;;;;;;5013355;28;20030;-61
2022/12/03 06:50:29;;;;;;;30.48;13.85;;;4.50;88.20;;;;;;5007855;28;20484;-61
2022/12/03 06:52:54;;;;;;;36.90;15.02;;;4.50;88.20;;;;;;5010354;28;20083;-58
2022/12/03 06:55:20;;;;;;;34.00;14.95;;;4.50;88.00;;;;;;5011718;28;20136;-60
2022/12/03 06:57:45;;;;;;;34.67;14.50;;;4.50;88.00;;;;;;5010058;28;20066;-60
2022/12/03 07:00:11;;;;;;;30.48;13.82;;;4.50;88.00;;;;;;5006233;28;20034;-60
2022/12/03 07:02:37;;;;;;;32.03;13.98;;;4.50;88.90;;;;;;5013015;28;20045;-61
2022/12/03 07:05:03;;;;;;;28.85;13.25;;;4.50;87.90;;;;;;5008676;28;20029;-60
2022/12/03 07:07:29;;;;;;;28.20;13.02;;;4.50;87.80;;;;;;5011027;28;20030;-59
2022/12/03 07:09:54;;;;;;;28.38;13.23;;;4.50;88.60;;;;;;5008748;28;20079;-60
2022/12/03 07:12:20;;;;;;;30.70;13.93;;;4.50;87.80;;;;;;5007795;28;20037;-61
2022/12/03 07:14:46;;;;;;;28.27;13.02;;;4.50;87.80;;;;;;5011759;28;20486;-58
2022/12/03 07:17:11;;;;;;;31.15;14.30;;;4.50;87.80;;;;;;5006268;28;20464;-57
2022/12/03 07:19:37;;;;;;;34.58;14.77;;;4.50;87.80;;;;;;5009832;28;20037;-61
2022/12/03 07:22:02;;;;;;;32.10;14.38;;;4.50;87.80;;;;;;5012533;28;20149;-60
2022/12/03 07:24:28;;;;;;;33.13;14.73;;;4.50;87.90;;;;;;5007346;28;20030;-59
2022/12/03 07:26:54;;;;;;;27.75;13.50;;;4.50;88.00;;;;;;5005246;28;20062;-61
2022/12/03 07:29:19;;;;;;;35.08;14.57;;;4.50;88.00;;;;;;5006484;28;20033;-60
2022/12/03 07:31:45;;;;;;;33.92;14.88;;;4.50;87.90;;;;;;5012114;28;20390;-61
2022/12/03 07:34:11;;;;;;;32.45;13.85;;;4.50;87.90;;;;;;5016432;28;20045;-60
2022/12/03 07:36:36;;;;;;;27.05;12.52;;;4.50;87.90;;;;;;5016100;28;20128;-60
2022/12/03 07:39:02;;;;;;;32.72;14.00;;;4.50;87.90;;;;;;5013588;28;20093;-60
2022/12/03 07:41:28;;;;;;;28.17;13.38;;;4.50;87.90;;;;;;5016714;28;20053;-61
2022/12/03 07:43:53;;;;;;;30.27;13.55;;;4.50;87.80;;;;;;5015641;28;20029;-60
2022/12/03 07:46:19;;;;;;;27.50;13.95;;;4.40;87.80;;;;;;5011631;28;20037;-60
2022/12/03 07:48:44;;;;;;;30.52;13.68;;;4.40;87.90;;;;;;5013237;28;20060;-60
2022/12/03 07:51:10;;;;;;;36.20;15.35;;;4.40;87.90;;;;;;5013971;28;20045;-60
2022/12/03 07:53:35;;;;;;;29.15;14.68;;;4.40;87.90;;;;;;5014504;28;20043;-59
2022/12/03 07:56:03;;;;;;;29.50;14.57;;;4.40;87.80;;;;;;5014864;28;20034;-61
2022/12/03 07:58:29;;;;;;;29.95;13.85;;;4.40;87.90;;;;;;4994770;28;20056;-61
2022/12/03 08:00:55;;;;;;;29.27;14.27;;;4.40;87.90;;;;;;5013528;28;20078;-59
2022/12/03 08:03:21;;;;;;;31.95;13.95;;;4.40;87.90;;;;;;5009145;28;20037;-61
2022/12/03 08:05:47;;;;;;;32.67;14.63;;;4.40;87.90;;;;;;5012198;28;20046;-61
2022/12/03 08:08:12;;;;;;;30.35;13.77;;;4.40;88.00;;;;;;5015115;28;20547;-61
2022/12/03 08:10:38;;;;;;;30.38;13.35;;;4.40;87.90;;;;;;5012827;28;20132;-61
2022/12/03 08:13:10;;;;;;;28.48;13.10;;;4.40;87.90;;;;;;5012778;28;20046;-61
2022/12/03 08:15:36;;;;;;;29.88;13.00;;;4.40;87.80;;;;;;4997851;28;20471;-61
2022/12/03 08:18:10;;;;;;;28.58;12.95;;;4.40;87.70;;;;;;5006685;28;20042;-58
2022/12/03 08:20:39;;;;;;;26.02;12.13;;;4.40;87.70;;;;;;5014209;28;20044;-59
2022/12/03 08:23:31;;;;;;;30.45;12.93;;;4.40;87.70;;;;;;5017180;28;20045;-60
2022/12/03 08:26:00;;;;;;;25.50;12.13;;;4.40;87.60;;;;;;5014858;28;20488;-59
2022/12/03 08:28:26;;;;;;;33.70;12.80;;;4.40;87.60;;;;;;5022112;28;20577;-60
2022/12/03 08:31:01;;;;;;;29.13;13.45;;;4.40;87.60;;;;;;5015367;28;20038;-60
2022/12/03 08:33:32;;;;;;;20.15;9.40;;;4.40;87.60;;;;;;5018521;28;20034;-61
2022/12/03 08:36:28;;;;;;;30.10;12.52;;;4.40;86.80;;;;;;4998727;28;20049;-61
2022/12/03 08:39:00;;;;;;;30.08;13.10;;;4.40;87.60;;;;;;5021241;28;20116;-60
2022/12/03 08:44:29;;;;;;;30.27;13.85;;;4.40;87.80;;;;;;5017388;28;20107;-61
2022/12/03 08:47:13;;;;;;;27.85;13.45;;;4.40;87.90;;;;;;5021018;28;20581;-59
2022/12/03 08:49:39;;;;;;;31.83;14.40;;;4.40;87.90;;;;;;5021760;28;20029;-61
2022/12/03 08:52:17;;;;;;;26.45;13.48;;;4.40;87.70;;;;;;5010773;28;20452;-61
2022/12/03 08:54:52;;;;;;;25.15;12.75;;;4.30;87.50;;;;;;5021286;28;20038;-60
2022/12/03 08:57:29;;;;;;;27.38;12.85;;;4.30;87.70;;;;;;5019837;28;20062;-59
2022/12/03 09:00:13;;;;;;;28.58;13.27;;;4.30;87.90;;;;;;5016763;28;20281;-61
2022/12/03 09:02:44;;;;;;;32.05;14.27;;;4.30;88.00;;;;;;5018346;28;20497;-61
2022/12/03 09:05:17;;;;;;;29.45;13.48;;;4.30;88.00;;;;;;5016993;28;20128;-60
2022/12/03 09:07:43;;;;;;;30.25;14.38;;;4.30;88.00;;;;;;5013347;28;20038;-61
2022/12/03 09:10:08;;;;;;;26.55;12.93;;;4.30;88.00;;;;;;5020824;28;20115;-61
2022/12/03 09:12:34;;;;;;;33.63;13.55;;;4.30;88.00;;;;;;5018871;28;20040;-60
2022/12/03 09:15:00;;;;;;;32.78;13.80;;;4.30;88.00;;;;;;5021683;28;20045;-61
2022/12/03 09:17:25;;;;;;;30.40;13.52;;;4.30;87.90;;;;;;5020746;28;20052;-62
2022/12/03 09:19:51;;;;;;;28.27;12.75;;;4.40;87.90;;;;;;5019076;28;20492;-61
2022/12/03 09:22:17;;;;;;;29.45;13.32;;;4.40;87.90;;;;;;5021686;28;20061;-60
2022/12/03 09:24:43;;;;;;;30.45;13.65;;;4.40;88.00;;;;;;5017696;28;20035;-61
2022/12/03 09:27:08;;;;;;;29.70;13.63;;;4.40;88.00;;;;;;5021151;28;20441;-61
2022/12/03 09:29:34;;;;;;;30.75;13.20;;;4.40;88.00;;;;;;5018781;28;20044;-61
2022/12/03 09:32:00;;;;;;;31.08;13.27;;;4.40;88.00;;;;;;5016751;28;20038;-59
2022/12/03 09:34:25;;;;;;;28.20;13.00;;;4.40;88.00;;;;;;5011707;28;20568;-60
2022/12/03 09:36:51;;;;;;;26.15;12.35;;;4.40;87.90;;;;;;5013078;28;20129;-60
2022/12/03 09:39:16;;;;;;;27.40;13.02;;;4.40;87.70;;;;;;5013189;28;20034;-61
2022/12/03 09:41:42;;;;;;;27.88;12.70;;;4.40;87.70;;;;;;4998393;28;20516;-60
2022/12/03 09:44:09;;;;;;;25.73;12.65;;;4.40;88.40;;;;;;5013304;28;20499;-61
2022/12/03 09:46:36;;;;;;;25.13;12.13;;;4.40;87.50;;;;;;5012352;28;20030;-61
2022/12/03 09:49:03;;;;;;;27.73;12.50;;;4.40;87.50;;;;;;5013758;28;20041;-61
2022/12/03 09:51:32;;;;;;;25.73;12.10;;;4.40;87.60;;;;;;5013688;28;20072;-60
2022/12/03 09:54:00;;;;;;;25.92;12.15;;;4.40;87.60;;;;;;5012961;28;20105;-61
2022/12/03 09:56:25;;;;;;;25.63;11.88;;;4.40;87.70;;;;;;5013926;28;20048;-62
2022/12/03 09:58:51;;;;;;;26.17;12.43;;;4.40;87.60;;;;;;5012511;28;20354;-61
2022/12/03 10:01:17;;;;;;;25.30;11.82;;;4.40;87.50;;;;;;5012769;28;20046;-62
2022/12/03 10:03:45;;;;;;;26.17;12.43;;;4.40;87.50;;;;;;5008159;28;20524;-61
2022/12/03 10:06:15;;;;;;;29.83;12.65;;;4.40;87.70;;;;;;5007243;28;20121;-61
2022/12/03 10:08:41;;;;;;;23.67;11.50;;;4.40;87.70;;;;;;5011640;28;20033;-61
2022/12/03 10:11:06;;;;;;;25.00;11.48;;;4.40;87.70;;;;;;5010229;28;20042;-62
2022/12/03 10:13:36;;;;;;;21.55;10.40;;;4.40;87.70;;;;;;5009067;28;20034;-60
2022/12/03 10:16:01;;;;;;;24.13;11.23;;;4.40;87.70;;;;;;5012947;28;20038;-60
2022/12/03 10:18:32;;;;;;;23.17;11.07;;;4.40;87.60;;;;;;5014239;28;20029;-61
2022/12/03 10:20:57;;;;;;;22.90;11.20;;;4.40;87.70;;;;;;5010063;28;20034;-59
2022/12/03 10:23:26;;;;;;;20.45;10.30;;;4.40;87.70;;;;;;5009266;28;20041;-60
2022/12/03 10:26:01;;;;;;;22.77;10.88;;;4.40;87.70;;;;;;5013806;28;20339;-60
2022/12/03 10:28:36;;;;;;;19.00;9.63;;;4.40;87.50;;;;;;5011032;28;20038;-61
2022/12/03 10:31:03;;;;;;;;;;;4.40;87.40;;;;;;5009792;28;20468;-61
2022/12/03 10:33:43;;;;;;;21.08;9.52;;;4.40;87.30;;;;;;5006877;28;20327;-60
2022/12/03 10:36:25;;;;;;;22.02;10.18;;;4.40;86.90;;;;;;5012445;28;20065;-62
2022/12/03 10:39:11;;;;;;;22.15;10.55;;;4.40;86.90;;;;;;5010291;28;20394;-61
2022/12/03 10:41:38;;;;;;;18.88;10.00;;;4.40;86.90;;;;;;5013398;28;20044;-61
2022/12/03 10:44:21;;;;;;;18.88;9.60;;;4.40;87.00;;;;;;5015457;28;20041;-61
2022/12/03 10:47:17;;;;;;;18.20;9.43;;;4.30;86.90;;;;;;5014087;28;20041;-61
2022/12/03 10:49:42;;;;;;;19.42;9.50;;;4.30;87.20;;;;;;5000157;28;20394;-59
2022/12/03 10:52:22;;;;;;;19.70;9.45;;;4.30;87.50;;;;;;5014349;28;20034;-61
2022/12/03 10:54:49;;;;;;;18.50;9.57;;;4.30;87.40;;;;;;5010018;28;20289;-61
2022/12/03 10:57:14;;;;;;;19.17;9.77;;;4.30;87.30;;;;;;4993415;28;20488;-60
2022/12/03 10:59:41;;;;;;;18.60;9.73;;;4.40;87.30;;;;;;5015215;28;20053;-60
2022/12/03 11:02:22;;;;;;;18.42;9.82;;;4.40;87.20;;;;;;5016095;28;20038;-60
2022/12/03 11:04:48;;;;;;;18.98;9.55;;;4.40;87.30;;;;;;5012331;28;20092;-60
2022/12/03 11:07:16;;;;;;;16.23;8.88;;;4.40;87.20;;;;;;5015589;28;20044;-60
2022/12/03 11:09:44;;;;;;;19.58;9.57;;;4.40;87.20;;;;;;5017216;28;20509;-61
2022/12/03 11:12:17;;;;;;;17.35;8.98;;;4.40;87.20;;;;;;5011196;28;20046;-60
2022/12/03 11:14:53;;;;;;;18.23;8.98;;;4.40;86.90;;;;;;5014448;28;20034;-61
2022/12/03 11:17:38;;;;;;;20.30;9.70;;;4.40;86.80;;;;;;5017996;28;20504;-59
2022/12/03 11:20:04;;;;;;;19.73;9.73;;;4.30;86.70;;;;;;5018195;28;20022;-61
2022/12/03 11:22:40;;;;;;;18.35;9.23;;;4.30;86.70;;;;;;5017711;28;20049;-60
2022/12/03 11:25:24;;;;;;;17.27;8.80;;;4.30;86.70;;;;;;5018225;28;20111;-60
2022/12/03 11:28:09;;;;;;;15.93;8.13;;;4.30;86.80;;;;;;5016787;28;20057;-59
2022/12/03 11:30:50;;;;;;;17.00;8.85;;;4.30;86.80;;;;;;5017586;28;20033;-60
2022/12/03 11:33:47;;;;;;;17.95;8.50;;;4.30;86.80;;;;;;5017252;28;20044;-60
2022/12/03 11:36:14;;;;;;;19.42;9.80;;;4.30;86.60;;;;;;4974048;28;20059;-59
2022/12/03 11:38:44;;;;;;;19.63;9.57;;;4.30;86.60;;;;;;5017033;28;20113;-61
2022/12/03 11:41:25;;;;;;;20.90;11.25;;;4.30;86.60;;;;;;5017014;28;20509;-60
2022/12/03 11:43:51;;;;;;;19.63;10.55;;;4.30;86.60;;;;;;5015756;28;20068;-60
2022/12/03 11:46:35;;;;;;;18.92;10.13;;;4.30;86.60;;;;;;5008603;28;20034;-61
2022/12/03 11:49:03;;;;;;;19.48;10.25;;;4.20;86.60;;;;;;5014818;28;20064;-62
2022/12/03 11:51:29;;;;;;;19.70;10.20;;;4.20;86.60;;;;;;5012323;28;20045;-61
2022/12/03 11:53:57;;;;;;;21.90;11.15;;;4.10;86.70;;;;;;5014400;28;20029;-60
2022/12/03 11:56:26;;;;;;;23.70;9.85;;;4.10;86.60;;;;;;5013819;28;20439;-61
2022/12/03 11:59:00;;;;;;;19.00;9.30;;;4.00;86.60;;;;;;5013898;28;20489;-60
2022/12/03 12:01:37;;;;;;;17.70;9.55;;;4.10;86.60;;;;;;5016016;28;20045;-61
2022/12/03 12:04:04;;;;;;;16.98;9.23;;;4.00;86.80;;;;;;5016159;28;20150;-59
2022/12/03 12:06:40;;;;;;;18.58;9.57;;;4.00;86.90;;;;;;5014871;28;20037;-60
2022/12/03 12:09:05;;;;;;;18.10;9.80;;;4.00;87.00;;;;;;5013851;28;20042;-59
2022/12/03 12:11:33;;;;;;;18.33;9.00;;;4.00;87.00;;;;;;5010876;28;20068;-60
2022/12/03 12:14:05;;;;;;;15.55;8.70;;;4.00;87.00;;;;;;5012509;28;20034;-61
2022/12/03 12:17:02;;;;;;;19.20;10.00;;;4.00;87.00;;;;;;5014534;28;20034;-62
2022/12/03 12:19:42;;;;;;;18.75;9.23;;;4.00;87.00;;;;;;5012998;28;20088;-61
2022/12/03 12:22:18;;;;;;;18.90;8.98;;;4.00;86.80;;;;;;5014382;28;20038;-61
2022/12/03 12:24:50;;;;;;;17.20;8.82;;;4.00;86.70;;;;;;5013696;28;20030;-62
2022/12/03 12:27:20;;;;;;;14.15;8.50;;;4.00;86.70;;;;;;5012946;28;20046;-59
2022/12/03 12:29:57;;;;;;;19.83;9.95;;;3.90;86.60;;;;;;5013769;28;20390;-61
2022/12/03 12:32:27;;;;;;;17.85;9.15;;;4.00;86.70;;;;;;5013151;28;20057;-61
2022/12/03 12:34:57;;;;;;;19.30;9.43;;;3.90;86.70;;;;;;5011938;28;20034;-61
2022/12/03 12:37:34;;;;;;;19.38;9.85;;;3.90;86.80;;;;;;5015343;28;20034;-61
2022/12/03 12:40:08;;;;;;;18.55;9.63;;;3.90;87.80;;;;;;5013922;28;20033;-60
2022/12/03 12:42:42;;;;;;;28.23;14.40;;;3.90;87.00;;;;;;5015204;28;20054;-59
2022/12/03 12:45:14;;;;;;;22.83;11.93;;;3.90;87.20;;;;;;5014112;28;20065;-60
2022/12/03 12:47:53;;;;;;;21.98;11.10;;;3.90;87.20;;;;;;5008232;28;20660;-60
2022/12/03 12:50:19;;;;;;;19.58;9.85;;;3.90;87.20;;;;;;5015047;28;20128;-59
2022/12/03 12:52:53;;;;;;;16.95;8.88;;;3.90;87.20;;;;;;5012346;28;20168;-59
2022/12/03 12:55:23;;;;;;;19.77;9.65;;;3.90;87.00;;;;;;5009506;28;20777;-61
2022/12/03 12:57:48;;;;;;;25.05;12.48;;;3.90;87.00;;;;;;5008656;28;20062;-62
2022/12/03 13:00:20;;;;;;;18.50;9.32;;;3.90;86.90;;;;;;5010155;28;20069;-61
2022/12/03 13:03:16;;;;;;;16.20;9.32;;;3.90;86.50;;;;;;5011560;28;20058;-61
2022/12/03 13:05:45;;;;;;;15.15;8.63;;;3.90;86.40;;;;;;4999665;28;20076;-61
2022/12/03 13:08:22;;;;;;;18.50;9.02;;;3.90;86.60;;;;;;5014167;28;20069;-61
2022/12/03 13:10:48;;;;;;;25.02;11.90;;;3.80;86.60;;;;;;5014142;28;20030;-61
2022/12/03 13:13:39;;;;;;;20.98;10.95;;;3.90;86.80;;;;;;5012696;28;20045;-62